sensor_id;sensor_type;location;lat;lon;timestamp;temperature;humidity
55701;DHT22;41604;43.142;20.512;2024-02-23T14:04:46;333.20;1971.20
55701;DHT22;41604;43.142;20.512;2024-02-23T14:07:13;358.40;1920.00
55701;DHT22;41604;43.142;20.512;2024-02-23T14:09:38;358.40;1920.00
55701;DHT22;41604;43.142;20.512;2024-02-23T14:12:04;358.40;1920.00
55701;DHT22;41604;43.142;20.512;2024-02-23T14:14:30;358.40;1920.00
55701;DHT22;41604;43.142;20.512;2024-02-23T14:16:56;358.40;1894.40
55701;DHT22;41604;43.142;20.512;2024-02-23T14:19:21;358.40;1920.00
55701;DHT22;41604;43.142;20.512;2024-02-23T14:21:48;358.40;1920.00
55701;DHT22;41604;43.142;20.512;2024-02-23T14:24:14;358.40;1920.00
55701;DHT22;41604;43.142;20.512;2024-02-23T14:26:39;358.40;1920.00
55701;DHT22;41604;43.142;20.512;2024-02-23T14:29:05;358.40;1920.00
55701;DHT22;41604;43.142;20.512;2024-02-23T14:31:31;358.40;1920.00
55701;DHT22;41604;43.142;20.512;2024-02-23T14:33:57;358.40;1894.40
55701;DHT22;41604;43.142;20.512;2024-02-23T14:36:23;358.40;1920.00
55701;DHT22;41604;43.142;20.512;2024-02-23T14:38:49;358.40;1920.00
55701;DHT22;41604;43.142;20.512;2024-02-23T14:41:15;358.40;1920.00
55701;DHT22;41604;43.142;20.512;2024-02-23T14:43:41;358.40;1894.40
55701;DHT22;41604;43.142;20.512;2024-02-23T14:46:07;333.70;1894.40
55701;DHT22;41604;43.142;20.512;2024-02-23T14:48:34;333.70;1894.40
55701;DHT22;41604;43.142;20.512;2024-02-23T14:51:00;358.40;1894.40
55701;DHT22;41604;43.142;20.512;2024-02-23T14:53:29;358.40;1894.40
55701;DHT22;41604;43.142;20.512;2024-02-23T14:55:55;333.70;1868.80
55701;DHT22;41604;43.142;20.512;2024-02-23T14:58:21;333.70;1894.40
55701;DHT22;41604;43.142;20.512;2024-02-23T15:00:46;333.70;1894.40
55701;DHT22;41604;43.142;20.512;2024-02-23T15:03:13;333.70;1894.40
55701;DHT22;41604;43.142;20.512;2024-02-23T15:05:40;333.70;1894.40
55701;DHT22;41604;43.142;20.512;2024-02-23T15:08:06;333.70;1894.40
55701;DHT22;41604;43.142;20.512;2024-02-23T15:10:33;333.70;1920.00
55701;DHT22;41604;43.142;20.512;2024-02-23T15:12:59;333.70;1920.00
55701;DHT22;41604;43.142;20.512;2024-02-23T15:15:25;333.70;1920.00
55701;DHT22;41604;43.142;20.512;2024-02-23T15:17:51;333.70;1945.60
55701;DHT22;41604;43.142;20.512;2024-02-23T15:20:18;333.70;1945.60
55701;DHT22;41604;43.142;20.512;2024-02-23T15:22:44;333.60;1945.60
55701;DHT22;41604;43.142;20.512;2024-02-23T15:43:03;333.60;1945.60
55701;DHT22;41604;43.142;20.512;2024-02-23T15:45:29;333.70;1920.00
55701;DHT22;41604;43.142;20.512;2024-02-23T15:47:55;333.70;1920.00
55701;DHT22;41604;43.142;20.512;2024-02-23T15:50:21;333.60;1945.60
55701;DHT22;41604;43.142;20.512;2024-02-23T15:52:48;333.60;1945.60
55701;DHT22;41604;43.142;20.512;2024-02-23T15:55:14;333.50;1945.60
55701;DHT22;41604;43.142;20.512;2024-02-23T15:57:40;333.40;1945.60
55701;DHT22;41604;43.142;20.512;2024-02-23T16:00:06;333.40;1971.20
55701;DHT22;41604;43.142;20.512;2024-02-23T16:02:33;333.40;1971.20
55701;DHT22;41604;43.142;20.512;2024-02-23T16:07:27;333.30;1971.20
55701;DHT22;41604;43.142;20.512;2024-02-23T16:09:53;333.30;1996.80
55701;DHT22;41604;43.142;20.512;2024-02-23T16:12:19;333.20;1971.20
55701;DHT22;41604;43.142;20.512;2024-02-23T16:14:45;333.20;1996.80
55701;DHT22;41604;43.142;20.512;2024-02-23T16:17:11;333.30;1996.80
55701;DHT22;41604;43.142;20.512;2024-02-23T16:19:36;333.30;1996.80
55701;DHT22;41604;43.142;20.512;2024-02-23T16:22:03;333.20;2022.40
55701;DHT22;41604;43.142;20.512;2024-02-23T16:24:28;333.30;2022.40
55701;DHT22;41604;43.142;20.512;2024-02-23T16:26:54;333.20;2022.40
55701;DHT22;41604;43.142;20.512;2024-02-23T16:29:20;333.20;2022.40
55701;DHT22;41604;43.142;20.512;2024-02-23T16:31:46;333.20;2022.40
55701;DHT22;41604;43.142;20.512;2024-02-23T16:34:12;333.20;2022.40
55701;DHT22;41604;43.142;20.512;2024-02-23T16:36:37;333.20;2022.40
55701;DHT22;41604;43.142;20.512;2024-02-23T16:39:03;333.20;2022.40
55701;DHT22;41604;43.142;20.512;2024-02-23T16:41:34;333.20;2022.40
55701;DHT22;41604;43.142;20.512;2024-02-23T16:44:00;333.30;2022.40
55701;DHT22;41604;43.142;20.512;2024-02-23T16:46:27;333.20;2022.40
55701;DHT22;41604;43.142;20.512;2024-02-23T16:48:52;333.20;2022.40
55701;DHT22;41604;43.142;20.512;2024-02-23T16:51:18;333.20;2022.40
55701;DHT22;41604;43.142;20.512;2024-02-23T16:53:53;333.20;2022.40
55701;DHT22;41604;43.142;20.512;2024-02-23T16:56:19;333.20;1996.80
55701;DHT22;41604;43.142;20.512;2024-02-23T16:58:45;333.20;1996.80
55701;DHT22;41604;43.142;20.512;2024-02-23T17:01:10;333.20;1996.80
55701;DHT22;41604;43.142;20.512;2024-02-23T17:03:36;333.20;2022.40
55701;DHT22;41604;43.142;20.512;2024-02-23T17:06:03;333.20;1996.80
55701;DHT22;41604;43.142;20.512;2024-02-23T17:08:32;333.20;1996.80
55701;DHT22;41604;43.142;20.512;2024-02-23T17:10:58;333.20;2022.40
55701;DHT22;41604;43.142;20.512;2024-02-23T17:13:24;333.20;1996.80
55701;DHT22;41604;43.142;20.512;2024-02-23T17:15:53;333.20;1996.80
55701;DHT22;41604;43.142;20.512;2024-02-23T17:18:19;333.20;1996.80
55701;DHT22;41604;43.142;20.512;2024-02-23T17:41:34;333.30;2048.00
55701;DHT22;41604;43.142;20.512;2024-02-23T18:05:56;333.40;1996.80
55701;DHT22;41604;43.142;20.512;2024-02-23T20:00:36;333.30;2022.40
55701;DHT22;41604;43.142;20.512;2024-02-23T20:03:01;307.60;2150.40
55701;DHT22;41604;43.142;20.512;2024-02-23T20:05:28;307.50;2150.40
55701;DHT22;41604;43.142;20.512;2024-02-23T20:07:54;307.40;2150.40
55701;DHT22;41604;43.142;20.512;2024-02-23T20:44:35;307.30;2150.40
55701;DHT22;41604;43.142;20.512;2024-02-23T20:49:27;282.00;2201.60
55701;DHT22;41604;43.142;20.512;2024-02-23T22:07:37;281.90;2201.60
55701;DHT22;41604;43.142;20.512;2024-02-23T22:10:03;281.60;2227.20
55701;DHT22;41604;43.142;20.512;2024-02-23T22:12:29;281.60;2227.20
55701;DHT22;41604;43.142;20.512;2024-02-23T22:14:57;281.60;2252.80
55701;DHT22;41604;43.142;20.512;2024-02-23T22:17:25;256.90;2227.20
55701;DHT22;41604;43.142;20.512;2024-02-23T22:19:52;256.90;2227.20
55701;DHT22;41604;43.142;20.512;2024-02-23T22:22:18;256.80;2227.20
55701;DHT22;41604;43.142;20.512;2024-02-23T22:24:43;256.80;2227.20
55701;DHT22;41604;43.142;20.512;2024-02-23T22:27:09;256.80;2252.80
55701;DHT22;41604;43.142;20.512;2024-02-23T22:29:35;256.80;2252.80
55701;DHT22;41604;43.142;20.512;2024-02-23T22:32:01;256.90;2227.20
55701;DHT22;41604;43.142;20.512;2024-02-23T22:34:27;256.90;2227.20
55701;DHT22;41604;43.142;20.512;2024-02-23T22:36:52;256.80;2252.80
55701;DHT22;41604;43.142;20.512;2024-02-23T22:39:18;256.90;2227.20
55701;DHT22;41604;43.142;20.512;2024-02-23T22:41:44;256.80;2227.20
55701;DHT22;41604;43.142;20.512;2024-02-23T22:44:10;256.80;2227.20
55701;DHT22;41604;43.142;20.512;2024-02-23T22:46:36;256.80;2227.20
55701;DHT22;41604;43.142;20.512;2024-02-23T22:49:02;256.70;2227.20
55701;DHT22;41604;43.142;20.512;2024-02-23T22:51:27;256.80;2252.80
55701;DHT22;41604;43.142;20.512;2024-02-23T22:53:53;256.80;2252.80
55701;DHT22;41604;43.142;20.512;2024-02-23T22:56:19;256.90;2227.20
55701;DHT22;41604;43.142;20.512;2024-02-23T22:58:44;256.90;2227.20
55701;DHT22;41604;43.142;20.512;2024-02-23T23:01:10;256.90;2227.20
55701;DHT22;41604;43.142;20.512;2024-02-23T23:03:37;256.90;2227.20
55701;DHT22;41604;43.142;20.512;2024-02-23T23:06:03;281.60;2252.80
55701;DHT22;41604;43.142;20.512;2024-02-23T23:08:29;281.70;2252.80
55701;DHT22;41604;43.142;20.512;2024-02-23T23:10:55;281.70;2252.80
55701;DHT22;41604;43.142;20.512;2024-02-23T23:13:21;281.60;2252.80
55701;DHT22;41604;43.142;20.512;2024-02-23T23:15:47;256.90;2227.20
55701;DHT22;41604;43.142;20.512;2024-02-23T23:18:13;281.60;2252.80
55701;DHT22;41604;43.142;20.512;2024-02-23T23:20:38;281.70;2227.20
55701;DHT22;41604;43.142;20.512;2024-02-23T23:23:04;281.70;2227.20
55701;DHT22;41604;43.142;20.512;2024-02-23T23:25:30;281.60;2252.80
55701;DHT22;41604;43.142;20.512;2024-02-23T23:27:58;256.90;2227.20
55701;DHT22;41604;43.142;20.512;2024-02-23T23:30:24;281.60;2252.80
55701;DHT22;41604;43.142;20.512;2024-02-23T23:32:50;256.90;2227.20
55701;DHT22;41604;43.142;20.512;2024-02-23T23:35:16;256.90;2227.20
55701;DHT22;41604;43.142;20.512;2024-02-23T23:37:41;281.60;2252.80
55701;DHT22;41604;43.142;20.512;2024-02-23T23:40:08;281.70;2252.80
55701;DHT22;41604;43.142;20.512;2024-02-23T23:42:34;281.80;2252.80
55701;DHT22;41604;43.142;20.512;2024-02-23T23:45:00;281.60;2252.80
55701;DHT22;41604;43.142;20.512;2024-02-23T23:47:26;256.90;2252.80
55701;DHT22;41604;43.142;20.512;2024-02-23T23:49:52;256.90;2252.80
55701;DHT22;41604;43.142;20.512;2024-02-23T23:52:18;256.90;2252.80
55701;DHT22;41604;43.142;20.512;2024-02-23T23:54:44;281.60;2278.40
55701;DHT22;41604;43.142;20.512;2024-02-23T23:57:10;256.90;2252.80
55701;DHT22;41604;43.142;20.512;2024-02-23T23:59:35;256.90;2252.80
